Time;durP1;ratioP1;P1;durP2;ratioP2;P2;SDS_P1;SDS_P2;PMS_P1;PMS_P2;Temp;Humidity;BMP_temperature;BMP_pressure;BME280_temperature;BME280_humidity;BME280_pressure;Samples;Min_cycle;Max_cycle;Signal;HPM_P1;HPM_P2
2021/03/12 00:03:35;;;;;;;11.83;4.67;;;;;;;6.27;90.21;98750.27;3497975;82;98582;-83
2021/03/12 00:08:41;;;;;;;9.93;3.43;;;;;;;6.15;90.26;98768.39;3460703;84;29861;-82
2021/03/12 00:13:42;;;;;;;12.23;3.30;;;;;;;6.08;90.20;98768.96;3440949;83;97246;-83
2021/03/12 00:18:45;;;;;;;7.43;2.90;;;;;;;6.07;90.38;98783.78;3481058;83;33164;-83
2021/03/12 00:23:50;;;;;;;14.10;3.90;;;;;;;6.09;90.45;98779.50;3468385;83;100117;-83
2021/03/12 00:28:59;;;;;;;11.97;3.33;;;;;;;6.16;90.69;98785.58;3465652;83;32721;-82
2021/03/12 00:33:56;;;;;;;12.88;3.45;;;;;;;6.20;90.21;98793.17;3506654;82;97386;-83
2021/03/12 00:38:57;;;;;;;17.57;6.73;;;;;;;6.16;90.24;98797.27;3434037;84;29641;-82
2021/03/12 00:43:58;;;;;;;16.23;4.97;;;;;;;6.07;90.24;98800.97;3444544;83;98165;-82
2021/03/12 00:48:59;;;;;;;14.63;4.37;;;;;;;5.98;90.33;98804.63;3443519;84;32714;-83
2021/03/12 00:53:59;;;;;;;9.00;3.22;;;;;;;5.90;90.71;98802.27;3498140;82;98269;-83
2021/03/12 00:59:03;;;;;;;9.47;2.87;;;;;;;5.85;91.31;98791.12;3508063;82;32661;-82
2021/03/12 01:04:04;;;;;;;11.13;3.47;;;;;;;5.84;91.11;98801.08;3495122;82;98339;-82
2021/03/12 01:09:06;;;;;;;11.13;2.57;;;;;;;5.88;91.50;98798.55;3504824;82;32766;-82
2021/03/12 01:14:07;;;;;;;8.20;3.17;;;;;;;5.96;91.43;98790.59;3488874;82;98205;-82
2021/03/12 01:19:08;;;;;;;12.07;4.43;;;;;;;6.04;91.27;98783.18;3507887;82;32723;-82
2021/03/12 01:24:11;;;;;;;10.87;3.30;;;;;;;6.11;91.01;98788.08;3508167;82;98542;-82
2021/03/12 01:29:13;;;;;;;10.63;3.00;;;;;;;6.23;90.82;98797.27;3490664;82;32652;-82
2021/03/12 01:34:14;;;;;;;12.58;4.08;;;;;;;6.31;90.48;98797.50;3493889;82;98121;-83
2021/03/12 01:39:14;;;;;;;14.17;3.60;;;;;;;6.27;90.19;98795.34;3509186;82;32649;-83
2021/03/12 01:44:16;;;;;;;11.60;3.00;;;;;;;6.17;90.18;98809.75;3498441;81;98357;-82
2021/03/12 01:49:26;;;;;;;8.20;2.90;;;;;;;6.06;90.15;98809.53;3480257;82;32663;-82
2021/03/12 01:54:19;;;;;;;9.50;2.23;;;;;;;5.99;90.57;98806.77;3499169;82;98362;-82
2021/03/12 01:59:20;;;;;;;10.90;3.27;;;;;;;6.01;90.55;98813.41;3503156;82;32692;-82
2021/03/12 02:04:21;;;;;;;10.60;3.10;;;;;;;6.01;90.55;98813.41;3506879;81;98406;-82
2021/03/12 02:09:22;;;;;;;14.20;3.73;;;;;;;6.01;90.63;98812.04;3558036;81;32674;-82
2021/03/12 02:14:49;;;;;;;9.73;4.30;;;;;;;5.95;90.71;98790.38;3530996;80;97881;-82
2021/03/12 02:20:26;;;;;;;11.48;4.28;;;;;;;5.87;91.11;98793.47;3554335;81;25978;-82
2021/03/12 02:25:29;;;;;;;10.63;3.20;;;;;;;5.73;91.10;98805.69;3594682;80;98239;-82
2021/03/12 02:30:30;;;;;;;8.07;2.83;;;;;;;5.68;91.78;98815.00;3575287;80;32920;-82
2021/03/12 02:35:34;;;;;;;9.10;2.60;;;;;;;5.67;91.76;98820.27;3597209;80;98326;-82
2021/03/12 02:40:40;;;;;;;8.33;2.70;;;;;;;5.74;91.87;98823.62;3556608;80;32968;-82
2021/03/12 02:45:42;;;;;;;7.17;2.73;;;;;;;5.82;91.63;98822.50;3545863;80;98454;-82
2021/03/12 02:50:45;;;;;;;10.90;3.13;;;;;;;5.89;91.65;98819.82;3585527;80;32850;-82
2021/03/12 02:55:46;;;;;;;8.50;2.77;;;;;;;5.90;91.33;98818.05;3586909;80;98342;-81
2021/03/12 03:00:48;;;;;;;6.90;2.80;;;;;;;5.90;91.52;98833.06;3598676;80;26022;-82
2021/03/12 03:05:51;;;;;;;8.50;2.80;;;;;;;5.98;91.54;98837.40;3558532;80;99207;-82
2021/03/12 03:10:54;;;;;;;8.20;2.77;;;;;;;6.10;91.29;98832.16;3586111;81;27941;-82
2021/03/12 03:16:00;;;;;;;10.17;2.63;;;;;;;6.21;90.94;98837.09;3586537;80;97794;-83
2021/03/12 03:21:01;;;;;;;8.17;2.73;;;;;;;6.26;90.63;98841.58;3581863;80;32647;-82
2021/03/12 03:26:03;;;;;;;6.47;2.50;;;;;;;6.29;90.27;98838.66;3585679;80;98198;-82
2021/03/12 03:31:05;;;;;;;6.67;2.70;;;;;;;6.26;90.08;98842.16;3536784;82;33271;-82
2021/03/12 03:36:08;;;;;;;8.60;2.33;;;;;;;6.28;90.03;98837.87;3534425;82;98442;-82
2021/03/12 03:41:14;;;;;;;11.43;2.43;;;;;;;6.32;89.83;98839.27;3548626;82;32709;-82
2021/03/12 03:46:16;;;;;;;6.83;2.30;;;;;;;6.29;89.70;98822.27;3546428;81;97964;-82
2021/03/12 03:51:17;;;;;;;8.87;2.77;;;;;;;6.42;89.39;98840.64;3591013;81;26438;-83
2021/03/12 03:56:19;;;;;;;7.93;2.00;;;;;;;6.38;88.78;98847.28;3519551;82;98272;-82
2021/03/12 04:01:24;;;;;;;7.20;2.40;;;;;;;6.29;88.50;98859.16;3539711;82;32737;-82
2021/03/12 04:06:33;;;;;;;7.77;2.30;;;;;;;6.13;88.45;98860.87;3584019;80;98271;-82
2021/03/12 04:11:34;;;;;;;11.57;2.70;;;;;;;6.03;88.52;98867.64;3581858;80;32706;-84
2021/03/12 04:16:36;;;;;;;7.20;2.13;;;;;;;5.96;88.66;98880.70;3585827;80;98596;-84
2021/03/12 04:21:39;;;;;;;8.80;3.80;;;;;;;5.94;88.92;98877.55;3530837;81;26249;-83
2021/03/12 04:26:40;;;;;;;5.55;2.17;;;;;;;6.00;88.78;98886.94;3545603;80;98696;-83
2021/03/12 04:31:42;;;;;;;6.13;2.17;;;;;;;6.06;88.69;98893.59;3557349;81;32792;-83
2021/03/12 04:36:43;;;;;;;8.00;2.13;;;;;;;6.10;88.56;98886.77;3527543;81;98399;-82
2021/03/12 04:41:45;;;;;;;6.80;2.27;;;;;;;6.08;88.36;98898.67;3562273;81;32791;-83
2021/03/12 04:46:46;;;;;;;7.40;2.77;;;;;;;6.00;88.24;98896.49;3517414;81;97604;-82
2021/03/12 04:51:47;;;;;;;6.37;1.90;;;;;;;5.92;88.31;98895.48;3609172;80;32779;-83
2021/03/12 04:56:48;;;;;;;10.53;2.00;;;;;;;5.86;88.44;98896.44;3593342;80;97326;-82
2021/03/12 05:01:49;;;;;;;6.67;1.63;;;;;;;5.90;88.64;98895.09;3613103;80;32915;-83
2021/03/12 05:06:50;;;;;;;6.40;2.30;;;;;;;5.97;88.71;98894.55;3583966;80;98089;-81
2021/03/12 05:11:51;;;;;;;7.30;2.77;;;;;;;6.09;88.76;98899.66;3588859;80;32784;-81
2021/03/12 05:16:52;;;;;;;7.93;3.03;;;;;;;6.20;88.53;98903.22;3526639;81;97807;-82
2021/03/12 05:21:55;;;;;;;8.07;3.23;;;;;;;6.22;88.36;98910.44;3590675;80;32644;-81
2021/03/12 05:26:56;;;;;;;9.40;3.50;;;;;;;6.21;88.25;98914.34;3594052;80;98251;-80
2021/03/12 05:31:57;;;;;;;7.10;2.53;;;;;;;6.17;88.24;98921.73;3602854;80;32701;-81
2021/03/12 05:36:58;;;;;;;8.47;3.53;;;;;;;6.15;88.44;98924.64;3592944;79;97508;-82
2021/03/12 05:42:00;;;;;;;8.33;3.00;;;;;;;6.19;88.51;98928.18;3595841;80;32695;-82
2021/03/12 05:47:01;;;;;;;8.07;3.13;;;;;;;6.25;88.71;98936.20;3599514;80;98147;-82
2021/03/12 05:52:03;;;;;;;9.20;3.73;;;;;;;6.35;88.76;98935.47;3595647;80;32873;-81
2021/03/12 05:57:05;;;;;;;10.20;4.27;;;;;;;6.41;88.58;98957.15;3585653;80;98102;-82
2021/03/12 06:02:06;;;;;;;12.57;5.50;;;;;;;6.40;88.50;98967.31;3596696;80;32742;-82
2021/03/12 06:07:13;;;;;;;11.93;4.83;;;;;;;6.39;88.46;98972.55;3586253;80;97632;-83
2021/03/12 06:12:14;;;;;;;13.47;4.87;;;;;;;6.36;88.27;98983.47;3602956;80;25906;-81
2021/03/12 06:17:38;;;;;;;11.77;4.17;;;;;;;6.40;88.25;99006.14;3600800;80;98370;-81
2021/03/12 06:22:58;;;;;;;14.53;6.40;;;;;;;6.47;88.02;99015.73;3605358;80;32742;-81
2021/03/12 06:28:17;;;;;;;12.90;7.43;;;;;;;6.57;87.77;99028.09;3592109;80;98126;-81
2021/03/12 06:33:28;;;;;;;16.27;5.97;;;;;;;6.59;87.36;99036.67;3599974;80;98539;-81
2021/03/12 06:38:29;;;;;;;18.57;11.57;;;;;;;6.57;87.03;99052.69;3601447;80;25996;-84
2021/03/12 06:43:34;;;;;;;11.60;5.77;;;;;;;6.47;86.89;99067.08;3550557;81;98122;-82
2021/03/12 06:48:37;;;;;;;11.80;6.03;;;;;;;6.39;86.96;99081.08;3501788;82;32745;-81
2021/03/12 06:53:45;;;;;;;7.67;3.02;;;;;;;6.37;86.97;99082.82;3542203;81;98513;-82
2021/03/12 06:59:04;;;;;;;11.13;6.17;;;;;;;6.43;86.90;99097.69;3550399;81;32783;-80
2021/03/12 07:04:14;;;;;;;7.40;2.97;;;;;;;6.48;86.78;99108.27;3495091;82;98570;-81
2021/03/12 07:09:17;;;;;;;12.43;4.23;;;;;;;6.50;86.59;99119.59;3529464;82;31901;-80
2021/03/12 07:14:18;;;;;;;12.20;6.40;;;;;;;6.49;86.31;99139.13;3587218;80;98403;-80
2021/03/12 07:19:21;;;;;;;19.53;12.30;;;;;;;6.43;86.23;99154.31;3600468;80;32703;-80
2021/03/12 07:24:24;;;;;;;11.67;3.37;;;;;;;6.39;86.17;99164.42;3586882;80;97773;-80
2021/03/12 07:29:31;;;;;;;17.60;8.63;;;;;;;6.35;86.10;99168.50;3590464;80;25957;-81
2021/03/12 07:34:35;;;;;;;7.05;2.50;;;;;;;6.39;86.09;99173.98;3587760;80;98361;-81
2021/03/12 07:39:42;;;;;;;6.83;2.50;;;;;;;6.52;85.76;99183.44;3576787;80;32750;-80
2021/03/12 07:44:48;;;;;;;10.25;3.40;;;;;;;6.64;85.68;99186.66;3588076;80;98447;-81
2021/03/12 07:49:49;;;;;;;7.87;2.52;;;;;;;6.85;84.78;99204.56;3555778;80;26402;-81
2021/03/12 07:54:50;;;;;;;8.30;3.12;;;;;;;6.92;84.69;99208.70;3593074;80;98426;-80
2021/03/12 07:59:57;;;;;;;11.17;6.43;;;;;;;6.97;84.17;99223.39;3601086;80;33519;-84
2021/03/12 08:04:58;;;;;;;15.48;5.08;;;;;;;6.97;83.71;99219.85;3583536;79;98293;-81
2021/03/12 08:10:16;;;;;;;12.87;3.20;;;;;;;7.01;83.69;99229.67;3582534;80;32816;-80
2021/03/12 08:15:22;;;;;;;13.57;5.30;;;;;;;7.13;83.27;99241.66;3585621;79;98583;-82
2021/03/12 08:20:29;;;;;;;10.20;4.00;;;;;;;7.24;83.49;99253.44;3594471;80;27049;-79
2021/03/12 08:25:43;;;;;;;14.07;6.60;;;;;;;7.32;83.32;99259.73;3591277;80;98542;-80
2021/03/12 08:30:46;;;;;;;11.00;3.90;;;;;;;7.31;82.62;99265.02;3598649;80;26595;-81
2021/03/12 08:35:51;;;;;;;8.70;3.37;;;;;;;7.26;82.35;99278.45;3609456;79;97837;-81
2021/03/12 08:41:10;;;;;;;15.07;6.93;;;;;;;7.22;81.76;99279.61;3602481;80;25986;-79
2021/03/12 08:46:18;;;;;;;9.43;3.45;;;;;;;7.15;82.29;99284.45;3590610;80;98189;-80
2021/03/12 08:51:31;;;;;;;13.77;8.07;;;;;;;7.18;82.52;99289.17;3594813;80;25908;-81
2021/03/12 08:56:35;;;;;;;9.30;3.58;;;;;;;7.37;82.65;99294.95;3579228;80;98564;-83
2021/03/12 09:01:36;;;;;;;23.40;15.97;;;;;;;7.52;81.72;99296.00;3599718;80;32717;-79
2021/03/12 09:06:39;;;;;;;8.33;4.27;;;;;;;7.58;81.77;99301.91;3587590;80;98197;-79
2021/03/12 09:11:40;;;;;;;11.67;4.30;;;;;;;7.63;81.57;99298.81;3603724;80;33619;-80
2021/03/12 09:16:42;;;;;;;10.33;5.83;;;;;;;7.92;81.96;99310.84;3608065;79;98091;-80
2021/03/12 09:21:43;;;;;;;10.33;3.20;;;;;;;8.11;80.66;99299.56;3606273;80;32794;-81
2021/03/12 09:26:44;;;;;;;9.03;4.17;;;;;;;8.17;79.95;99296.64;3595988;80;98414;-83
2021/03/12 09:31:45;;;;;;;9.43;4.50;;;;;;;8.17;79.73;99310.34;3592059;80;32846;-82
2021/03/12 09:36:47;;;;;;;8.57;4.10;;;;;;;8.22;80.03;99316.84;3583685;80;98359;-82
2021/03/12 09:41:59;;;;;;;12.23;4.10;;;;;;;8.30;79.63;99315.68;3596907;80;27965;-81
2021/03/12 09:47:06;;;;;;;8.73;3.73;;;;;;;8.25;79.08;99341.33;3585983;80;98446;-80
2021/03/12 09:52:13;;;;;;;9.87;4.63;;;;;;;8.08;79.18;99345.53;3598344;80;33359;-81
2021/03/12 09:57:22;;;;;;;7.93;3.10;;;;;;;8.36;78.98;99347.05;3586894;79;97951;-80
2021/03/12 10:02:25;;;;;;;9.00;3.20;;;;;;;8.39;78.80;99355.85;3589743;80;31840;-82
2021/03/12 10:07:38;;;;;;;5.27;2.80;;;;;;;8.35;77.44;99375.61;3587886;79;98360;-84
2021/03/12 10:12:43;;;;;;;6.60;2.37;;;;;;;8.43;77.08;99363.50;3510992;83;27402;-82
2021/03/12 10:17:45;;;;;;;10.30;4.20;;;;;;;8.61;75.98;99369.03;3534372;81;97973;-81
2021/03/12 10:22:50;;;;;;;9.17;3.17;;;;;;;8.56;75.01;99375.67;3557767;81;33447;-82
2021/03/12 10:28:02;;;;;;;8.23;2.90;;;;;;;8.62;74.15;99360.40;3547082;81;97780;-80
2021/03/12 10:33:08;;;;;;;10.53;3.97;;;;;;;8.58;73.85;99387.05;3557195;81;26464;-81
2021/03/12 10:38:28;;;;;;;10.47;4.37;;;;;;;8.46;73.31;99390.73;3505232;82;98040;-79
2021/03/12 10:43:32;;;;;;;14.93;5.50;;;;;;;8.41;73.57;99398.73;3491357;82;98754;-80
2021/03/12 10:48:48;;;;;;;8.97;3.10;;;;;;;8.35;73.90;99405.77;3595704;80;33912;-81
2021/03/12 10:53:56;;;;;;;5.87;2.50;;;;;;;8.28;73.77;99392.64;3566894;80;98481;-79
2021/03/12 10:59:07;;;;;;;7.30;3.00;;;;;;;8.38;74.26;99413.80;3599076;80;32648;-81
2021/03/12 11:04:14;;;;;;;8.43;2.27;;;;;;;8.45;72.79;99428.33;3588819;80;98386;-80
2021/03/12 11:09:13;;;;;;;8.30;2.83;;;;;;;8.48;72.98;99416.59;3581433;80;30877;-84
2021/03/12 11:14:14;;;;;;;5.43;2.47;;;;;;;8.47;72.34;99419.14;3569901;80;101075;-80
2021/03/12 11:19:14;;;;;;;7.23;2.70;;;;;;;8.45;73.49;99420.09;3576714;81;33235;-78
2021/03/12 11:24:15;;;;;;;8.47;3.00;;;;;;;8.43;73.04;99420.28;3565063;80;98203;-80
2021/03/12 11:29:16;;;;;;;11.73;2.93;;;;;;;8.51;73.32;99417.78;3573363;81;32646;-79
2021/03/12 11:34:17;;;;;;;8.13;3.53;;;;;;;8.59;73.59;99427.01;3566781;81;98515;-81
2021/03/12 11:39:17;;;;;;;8.73;3.57;;;;;;;8.63;71.89;99427.81;3579450;81;32778;-78
2021/03/12 11:44:18;;;;;;;7.65;3.27;;;;;;;8.62;72.44;99412.50;3567072;81;98384;-79
2021/03/12 11:49:19;;;;;;;10.30;2.70;;;;;;;8.81;72.96;99423.14;3575813;81;27328;-81
2021/03/12 11:54:24;;;;;;;6.80;2.50;;;;;;;9.01;72.68;99424.36;3530680;82;98523;-81
2021/03/12 11:59:23;;;;;;;10.23;3.37;;;;;;;9.08;70.65;99427.68;3520634;82;26162;-80
2021/03/12 12:04:24;;;;;;;8.47;3.40;;;;;;;9.03;71.16;99434.34;3531704;81;98502;-80
2021/03/12 12:09:29;;;;;;;6.87;2.87;;;;;;;9.11;70.69;99433.77;3505142;82;26284;-80
2021/03/12 12:14:29;;;;;;;11.20;4.08;;;;;;;9.08;70.96;99425.73;3565819;80;98187;-80
2021/03/12 12:19:30;;;;;;;11.90;3.70;;;;;;;9.19;70.37;99432.59;3591838;80;26611;-80
2021/03/12 12:24:31;;;;;;;8.93;3.27;;;;;;;9.24;70.66;99420.64;3578524;80;98274;-81
2021/03/12 12:29:32;;;;;;;7.97;3.10;;;;;;;9.37;69.93;99429.28;3588853;80;26521;-81
2021/03/12 12:34:33;;;;;;;6.12;2.52;;;;;;;9.36;69.65;99441.41;3573413;80;98244;-80
2021/03/12 12:39:33;;;;;;;7.30;2.63;;;;;;;9.25;68.92;99421.41;3592480;80;26655;-81
2021/03/12 12:44:34;;;;;;;9.77;2.97;;;;;;;9.24;69.40;99431.63;3574923;80;98111;-81
2021/03/12 12:49:35;;;;;;;9.63;3.30;;;;;;;9.30;68.80;99424.56;3595750;80;26297;-78
2021/03/12 12:54:35;;;;;;;7.50;3.00;;;;;;;9.33;67.91;99425.73;3586274;80;98025;-80
2021/03/12 12:59:36;;;;;;;9.97;5.17;;;;;;;9.35;67.70;99428.30;3595510;80;33315;-78
2021/03/12 13:04:38;;;;;;;8.07;3.40;;;;;;;9.31;66.84;99429.45;3591014;80;98309;-78
2021/03/12 13:09:39;;;;;;;11.73;5.77;;;;;;;9.26;67.08;99432.00;3585105;80;34465;-80
2021/03/12 13:14:40;;;;;;;8.03;3.20;;;;;;;9.27;66.16;99423.19;3578303;81;98338;-79
2021/03/12 13:19:41;;;;;;;8.73;3.43;;;;;;;9.36;66.47;99434.55;3583916;81;33294;-80
2021/03/12 13:24:42;;;;;;;7.00;2.65;;;;;;;9.27;66.51;99449.27;3574937;81;98128;-78
2021/03/12 13:29:43;;;;;;;5.33;2.07;;;;;;;9.07;67.79;99457.10;3582435;81;33395;-77
2021/03/12 13:34:44;;;;;;;6.50;2.22;;;;;;;8.57;69.76;99483.41;3573220;81;98471;-80
2021/03/12 13:39:45;;;;;;;7.50;3.27;;;;;;;8.14;70.94;99488.46;3579197;81;33559;-79
2021/03/12 13:44:46;;;;;;;11.63;4.33;;;;;;;7.83;72.60;99461.08;3565829;81;98643;-80
2021/03/12 13:49:47;;;;;;;12.17;3.63;;;;;;;7.85;73.91;99448.38;3579922;81;31535;-81
2021/03/12 13:54:48;;;;;;;19.48;12.33;;;;;;;7.96;74.08;99445.88;3574607;80;98122;-80
2021/03/12 13:59:49;;;;;;;9.70;3.83;;;;;;;8.03;73.76;99452.79;3579693;81;32245;-79
2021/03/12 14:04:50;;;;;;;7.00;2.70;;;;;;;8.11;73.30;99447.53;3572824;81;98017;-79
2021/03/12 14:09:50;;;;;;;7.90;3.47;;;;;;;8.22;72.95;99457.20;3581774;80;31711;-79
2021/03/12 14:14:51;;;;;;;9.63;3.27;;;;;;;8.27;72.16;99445.87;3587959;80;98139;-82
2021/03/12 14:19:53;;;;;;;10.33;3.57;;;;;;;8.34;69.78;99451.41;3589914;80;31231;-80
2021/03/12 14:24:54;;;;;;;10.00;3.67;;;;;;;8.39;70.15;99465.52;3585205;80;98574;-80
2021/03/12 14:29:54;;;;;;;11.23;4.60;;;;;;;8.44;69.11;99480.80;3590707;80;32938;-79
2021/03/12 14:34:55;;;;;;;11.67;3.03;;;;;;;8.45;68.52;99471.42;3581274;80;98644;-82
2021/03/12 14:39:59;;;;;;;6.27;2.50;;;;;;;8.49;68.73;99476.31;3594308;80;35124;-79
2021/03/12 14:44:59;;;;;;;6.90;2.33;;;;;;;8.54;67.84;99476.74;3584539;80;98433;-79
2021/03/12 14:50:00;;;;;;;5.20;2.17;;;;;;;8.52;67.19;99478.30;3577184;80;35916;-79
2021/03/12 14:55:01;;;;;;;7.40;2.70;;;;;;;8.48;66.92;99477.49;3573464;80;98213;-79
2021/03/12 15:00:04;;;;;;;6.33;2.27;;;;;;;8.51;66.31;99476.13;3582735;80;35084;-78
2021/03/12 15:05:06;;;;;;;5.50;2.58;;;;;;;8.54;66.09;99478.11;3536669;81;98098;-79
2021/03/12 15:10:09;;;;;;;9.23;3.63;;;;;;;8.55;64.71;99477.51;3546720;81;35037;-78
2021/03/12 15:15:11;;;;;;;8.10;3.10;;;;;;;8.53;63.63;99481.23;3472642;83;98316;-79
2021/03/12 15:20:14;;;;;;;6.53;2.50;;;;;;;8.43;64.07;99489.63;3490609;83;35876;-79
2021/03/12 15:25:14;;;;;;;6.08;2.45;;;;;;;8.35;63.38;99496.23;3474835;83;98194;-80
2021/03/12 15:30:16;;;;;;;8.80;2.98;;;;;;;8.29;63.24;99494.26;3578134;81;36217;-80
2021/03/12 15:35:18;;;;;;;7.77;2.90;;;;;;;8.21;64.54;99521.41;3515772;82;98247;-81
2021/03/12 15:40:22;;;;;;;5.87;2.97;;;;;;;7.95;65.53;99504.59;3542939;82;35045;-77
2021/03/12 15:45:23;;;;;;;7.95;2.52;;;;;;;7.80;66.44;99502.14;3531219;82;98389;-79
2021/03/12 15:50:24;;;;;;;5.83;2.40;;;;;;;7.74;66.61;99495.45;3534619;82;35485;-80
2021/03/12 15:55:26;;;;;;;6.30;2.40;;;;;;;7.67;66.43;99494.00;3531998;81;98336;-81
2021/03/12 16:00:28;;;;;;;5.43;2.23;;;;;;;7.58;65.98;99492.20;3488015;83;35304;-79
2021/03/12 16:05:28;;;;;;;6.70;2.53;;;;;;;7.47;66.05;99482.52;3565858;80;98088;-80
2021/03/12 16:10:29;;;;;;;9.43;3.30;;;;;;;7.38;66.57;99494.38;3581007;81;35039;-80
2021/03/12 16:15:30;;;;;;;6.50;2.67;;;;;;;7.28;67.17;99485.48;3574886;81;97962;-80
2021/03/12 16:20:31;;;;;;;8.37;3.03;;;;;;;7.17;67.63;99494.75;3575978;81;35023;-80
2021/03/12 16:25:32;;;;;;;7.43;3.00;;;;;;;7.04;68.23;99496.97;3574504;80;98218;-83
2021/03/12 16:30:32;;;;;;;9.87;2.90;;;;;;;6.91;68.91;99495.67;3559904;82;35881;-80
2021/03/12 16:35:34;;;;;;;7.76;2.74;;;;;;;6.80;69.41;99493.41;3546153;82;98138;-81
2021/03/12 16:40:35;;;;;;;6.80;2.90;;;;;;;6.76;70.44;99503.51;3551943;82;32711;-82
2021/03/12 16:45:36;;;;;;;27.03;9.57;;;;;;;6.86;71.32;99505.58;3549234;82;98680;-79
2021/03/12 16:50:37;;;;;;;9.40;3.80;;;;;;;6.91;70.97;99502.51;3561731;82;32689;-79
2021/03/12 16:55:38;;;;;;;11.63;4.60;;;;;;;6.96;70.86;99495.91;3547460;82;98346;-80
2021/03/12 17:00:39;;;;;;;12.00;5.27;;;;;;;6.90;71.02;99500.14;3496387;83;32621;-77
2021/03/12 17:05:40;;;;;;;10.37;4.50;;;;;;;6.83;70.75;99494.60;3516879;82;98247;-79
2021/03/12 17:10:41;;;;;;;10.17;4.10;;;;;;;6.72;71.00;99495.06;3536464;82;33129;-79
2021/03/12 17:15:42;;;;;;;10.50;4.37;;;;;;;6.60;71.19;99489.26;3515698;82;98394;-79
2021/03/12 17:20:44;;;;;;;23.00;10.67;;;;;;;6.50;71.63;99500.08;3606975;80;33210;-79
2021/03/12 17:25:47;;;;;;;23.27;10.20;;;;;;;6.37;71.69;99495.99;3594123;80;98133;-80
2021/03/12 17:30:47;;;;;;;24.80;10.10;;;;;;;6.26;72.21;99495.87;3592637;80;32689;-80
2021/03/12 17:35:48;;;;;;;33.90;15.97;;;;;;;6.21;72.51;99498.92;3588938;80;98822;-78
2021/03/12 17:40:49;;;;;;;31.00;15.17;;;;;;;6.24;72.88;99500.13;3593372;80;32638;-79
2021/03/12 17:45:50;;;;;;;33.70;17.13;;;;;;;6.29;72.78;99503.91;3592908;80;98874;-78
2021/03/12 17:50:51;;;;;;;22.10;11.70;;;;;;;6.35;72.75;99492.28;3612226;80;32592;-77
2021/03/12 17:55:52;;;;;;;23.25;10.72;;;;;;;6.33;72.65;99500.05;3586612;79;98528;-76
2021/03/12 18:00:53;;;;;;;26.47;12.20;;;;;;;6.27;72.79;99504.86;3600225;80;27512;-79
2021/03/12 18:05:54;;;;;;;26.47;13.30;;;;;;;6.16;73.16;99509.40;3581279;79;98635;-79
2021/03/12 18:10:55;;;;;;;20.60;10.50;;;;;;;6.03;73.57;99514.85;3593005;80;26109;-77
2021/03/12 18:15:55;;;;;;;27.93;11.33;;;;;;;5.91;73.89;99502.22;3560201;81;98269;-78
2021/03/12 18:20:57;;;;;;;29.50;13.03;;;;;;;5.81;74.28;99502.84;3589032;81;26283;-79
2021/03/12 18:26:01;;;;;;;28.67;13.83;;;;;;;5.72;74.55;99503.64;3577634;81;98295;-79
2021/03/12 18:31:01;;;;;;;27.90;12.60;;;;;;;5.67;74.92;99505.91;3581006;81;27462;-79
2021/03/12 18:36:04;;;;;;;29.00;13.73;;;;;;;5.67;75.05;99504.55;3584361;80;98937;-79
2021/03/12 18:41:06;;;;;;;35.13;14.33;;;;;;;5.72;74.85;99502.88;3580995;81;27018;-78
2021/03/12 18:46:07;;;;;;;34.97;14.37;;;;;;;5.75;74.56;99508.38;3471646;82;98633;-79
2021/03/12 18:51:08;;;;;;;41.67;18.77;;;;;;;5.77;74.16;99504.69;3480432;83;26420;-78
2021/03/12 18:56:10;;;;;;;33.03;14.73;;;;;;;5.69;74.01;99503.59;3599706;80;98548;-79
2021/03/12 19:01:11;;;;;;;31.63;14.03;;;;;;;5.58;73.98;99504.80;3577020;81;26552;-80
2021/03/12 19:06:12;;;;;;;30.27;12.37;;;;;;;5.44;74.16;99498.30;3571604;81;97974;-80
2021/03/12 19:11:14;;;;;;;32.07;13.37;;;;;;;5.32;74.27;99494.41;3603071;80;25878;-80
2021/03/12 19:16:15;;;;;;;24.98;11.57;;;;;;;5.21;74.37;99505.70;3604321;79;98165;-80
2021/03/12 19:21:16;;;;;;;28.67;10.70;;;;;;;5.11;74.44;99498.13;3618873;79;25796;-79
2021/03/12 19:26:18;;;;;;;33.03;13.47;;;;;;;5.10;74.45;99500.64;3569173;79;98110;-79
2021/03/12 19:31:22;;;;;;;33.90;12.07;;;;;;;5.13;74.33;99497.20;3600304;79;25804;-78
2021/03/12 19:36:25;;;;;;;33.75;13.50;;;;;;;5.16;74.08;99497.83;3544801;81;97990;-79
2021/03/12 19:41:26;;;;;;;35.30;14.13;;;;;;;5.11;73.96;99492.67;3550282;81;25718;-79
2021/03/12 19:46:34;;;;;;;29.07;13.43;;;;;;;5.02;73.82;99494.86;3540063;80;98132;-80
2021/03/12 19:51:50;;;;;;;28.37;11.27;;;;;;;4.92;73.50;99488.64;3530987;82;27126;-80
2021/03/12 19:56:54;;;;;;;28.57;11.50;;;;;;;4.81;73.41;99485.70;3576042;80;98388;-80
2021/03/12 20:02:04;;;;;;;36.40;13.60;;;;;;;4.76;73.31;99477.05;3611820;80;27638;-79
2021/03/12 20:07:02;;;;;;;33.23;14.50;;;;;;;4.70;73.19;99488.80;3553403;80;98332;-80
2021/03/12 20:12:04;;;;;;;37.47;13.23;;;;;;;4.66;73.13;99466.73;3590378;80;26200;-80
2021/03/12 20:17:10;;;;;;;28.77;11.47;;;;;;;4.68;73.02;99476.13;3563304;80;97858;-80
2021/03/12 20:22:09;;;;;;;28.40;11.73;;;;;;;4.71;73.05;99468.59;3558829;81;25933;-80
2021/03/12 20:27:12;;;;;;;25.70;11.30;;;;;;;4.79;72.88;99467.56;3558319;81;97883;-79
2021/03/12 20:32:18;;;;;;;31.00;12.03;;;;;;;4.80;72.67;99460.19;3564707;81;27461;-79
2021/03/12 20:37:20;;;;;;;24.72;11.20;;;;;;;4.76;72.71;99457.38;3544580;81;98009;-78
2021/03/12 20:42:21;;;;;;;27.63;11.80;;;;;;;4.69;72.62;99450.44;3550304;81;27497;-79
2021/03/12 20:47:25;;;;;;;23.07;10.00;;;;;;;4.62;72.73;99445.43;3547109;79;97944;-80
2021/03/12 20:52:29;;;;;;;31.20;11.00;;;;;;;4.57;72.77;99441.07;3567565;81;27485;-80
2021/03/12 20:57:51;;;;;;;;;;;;;;;;;;;;;
2021/03/12 21:02:55;;;;;;;;;;;;;;;;;;;;;
2021/03/12 21:08:16;;;;;;;;;;;;;;;;;;;;;
2021/03/12 21:18:46;;;;;;;;;;;;;;;;;;;;;
2021/03/12 21:23:46;;;;;;;;;;;;;;;;;;;;;
2021/03/12 21:28:47;;;;;;;30.17;10.13;;;;;;;4.73;72.08;99404.17;3603869;79;26072;-79
2021/03/12 21:33:49;;;;;;;27.53;8.87;;;;;;;4.70;71.98;99405.69;3572240;78;98151;-81
2021/03/12 21:38:56;;;;;;;17.63;6.77;;;;;;;4.67;71.67;99404.27;3551974;81;26576;-79
2021/03/12 21:43:56;;;;;;;16.50;7.30;;;;;;;4.65;71.71;99388.27;3487376;82;98080;-80
2021/03/12 21:49:02;;;;;;;19.90;7.43;;;;;;;4.64;71.33;99378.52;3568769;80;27586;-78
2021/03/12 21:54:05;;;;;;;19.10;6.35;;;;;;;4.67;71.15;99374.28;3480336;82;98500;-80
2021/03/12 21:59:13;;;;;;;21.50;8.27;;;;;;;4.70;71.19;99374.34;3488715;83;27441;-80
2021/03/12 22:04:15;;;;;;;19.60;6.72;;;;;;;4.78;71.05;99362.98;3597191;79;98498;-79
2021/03/12 22:09:16;;;;;;;21.93;8.33;;;;;;;4.85;71.11;99352.23;3608416;79;26870;-79
2021/03/12 22:14:19;;;;;;;17.47;7.23;;;;;;;4.83;70.88;99346.33;3581467;78;97856;-79
2021/03/12 22:19:23;;;;;;;20.23;7.47;;;;;;;4.78;70.70;99348.80;3587121;80;27448;-79
2021/03/12 22:24:25;;;;;;;20.87;6.77;;;;;;;4.70;70.75;99345.73;3588667;80;98005;-79
2021/03/12 22:29:28;;;;;;;24.87;9.33;;;;;;;4.62;70.70;99337.80;3602150;80;27490;-78
2021/03/12 22:34:41;;;;;;;19.80;6.57;;;;;;;4.55;71.02;99337.69;3587257;79;98561;-80
2021/03/12 22:51:01;;;;;;;;;;;;;;;;;;;;;
2021/03/12 23:01:35;;;;;;;;;;;;;;;;;;;;;
2021/03/12 23:06:38;;;;;;;21.07;7.57;;;;;;;4.63;71.02;99295.20;3019737;95;98048;-80
2021/03/12 23:17:34;;;;;;;;;;;;;;;;;;;;;
2021/03/12 23:22:39;;;;;;;;;;;;;;;;;;;;;
2021/03/12 23:38:31;;;;;;;;;;;;;;;;;;;;;
2021/03/12 23:43:39;;;;;;;15.80;4.83;;;;;;;4.64;71.12;99255.91;2943838;97;98180;-80
2021/03/12 23:49:06;;;;;;;17.20;5.67;;;;;;;4.73;71.13;99244.19;2978588;97;25914;-80
2021/03/12 23:54:28;;;;;;;;;;;;;;;;;;;;;
